Time;durP1;ratioP1;P1;durP2;ratioP2;P2;SDS_P1;SDS_P2;PMS_P1;PMS_P2;Temp;Humidity;BMP_temperature;BMP_pressure;BME280_temperature;BME280_humidity;BME280_pressure;Samples;Min_cycle;Max_cycle;Signal;HPM_P1;HPM_P2
2023/01/07 00:01:18;;;;;;;68.05;44.55;;;5.70;99.90;;;;;;5093140;28;20024;-73
2023/01/07 00:03:45;;;;;;;64.88;39.30;;;5.70;99.90;;;;;;5093562;28;20039;-73
2023/01/07 00:06:17;;;;;;;60.65;43.08;;;5.70;99.90;;;;;;5088882;28;20020;-73
2023/01/07 00:08:44;;;;;;;69.68;45.47;;;5.80;99.90;;;;;;5085180;28;20050;-73
2023/01/07 00:11:15;;;;;;;68.13;43.35;;;5.70;99.90;;;;;;5074550;28;20110;-72
2023/01/07 00:13:42;;;;;;;70.55;47.88;;;5.60;99.90;;;;;;5082414;28;20041;-72
2023/01/07 00:16:13;;;;;;;53.25;35.58;;;5.60;99.90;;;;;;5093345;28;20103;-73
2023/01/07 00:18:40;;;;;;;66.35;44.85;;;5.60;99.90;;;;;;5093106;28;20024;-73
2023/01/07 00:21:09;;;;;;;61.85;38.45;;;5.60;99.90;;;;;;5093392;28;20020;-73
2023/01/07 00:23:36;;;;;;;62.75;43.42;;;5.50;99.90;;;;;;5092687;28;20025;-73
2023/01/07 00:26:07;;;;;;;65.93;42.88;;;5.50;99.90;;;;;;5093155;28;20020;-73
2023/01/07 00:28:35;;;;;;;73.80;45.30;;;5.50;99.90;;;;;;5092649;28;20028;-72
2023/01/07 00:31:11;;;;;;;72.68;47.80;;;5.50;99.90;;;;;;5093241;28;20020;-72
2023/01/07 00:34:22;;;;;;;72.30;45.65;;;5.40;99.90;;;;;;5092971;28;20053;-72
2023/01/07 00:36:34;;;;;;;65.30;43.90;;;5.40;99.90;;;;;;5082158;28;20044;-73
2023/01/07 00:39:03;;;;;;;56.13;36.92;;;5.40;99.90;;;;;;5075064;28;20032;-72
2023/01/07 00:41:29;;;;;;;48.78;29.30;;;5.40;99.90;;;;;;5092561;28;20047;-73
2023/01/07 00:43:56;;;;;;;56.65;34.22;;;5.40;99.90;;;;;;5085372;28;20032;-73
2023/01/07 00:46:22;;;;;;;50.22;28.13;;;5.50;99.90;;;;;;5072858;28;20440;-73
2023/01/07 00:48:48;;;;;;;48.38;28.30;;;5.40;99.90;;;;;;5054474;28;20500;-74
2023/01/07 00:51:16;;;;;;;43.47;25.50;;;5.50;99.90;;;;;;5070655;28;20419;-73
2023/01/07 00:53:42;;;;;;;44.28;30.95;;;5.50;99.90;;;;;;5068665;28;20024;-73
2023/01/07 00:56:09;;;;;;;43.90;28.08;;;5.50;99.90;;;;;;5068512;28;20036;-71
2023/01/07 00:58:36;;;;;;;39.75;29.30;;;5.40;99.90;;;;;;5055087;28;20020;-74
2023/01/07 01:01:03;;;;;;;55.17;30.50;;;5.40;99.90;;;;;;5060831;28;20035;-73
2023/01/07 01:03:31;;;;;;;50.83;33.35;;;5.30;99.90;;;;;;5072936;28;20078;-74
2023/01/07 01:06:05;;;;;;;58.03;34.03;;;5.20;99.90;;;;;;5066288;28;20027;-73
2023/01/07 01:08:31;;;;;;;60.70;38.33;;;5.10;99.90;;;;;;5080859;28;20032;-74
2023/01/07 01:11:05;;;;;;;121.07;77.78;;;5.10;99.90;;;;;;5094211;28;20108;-74
2023/01/07 01:13:32;;;;;;;152.05;94.88;;;5.00;99.90;;;;;;5078796;28;20028;-74
2023/01/07 01:15:58;;;;;;;129.70;79.38;;;5.00;99.90;;;;;;5096808;28;20018;-74
2023/01/07 01:18:24;;;;;;;143.32;92.32;;;4.90;99.90;;;;;;5096544;28;20032;-74
2023/01/07 01:20:50;;;;;;;112.55;66.40;;;4.90;99.90;;;;;;5078795;28;20020;-74
2023/01/07 01:23:16;;;;;;;113.22;68.55;;;4.90;99.90;;;;;;5093086;28;20510;-74
2023/01/07 01:25:42;;;;;;;109.00;68.32;;;4.90;99.90;;;;;;5078566;28;20028;-74
2023/01/07 01:28:08;;;;;;;124.00;80.75;;;4.90;99.90;;;;;;5096443;28;20473;-74
2023/01/07 01:30:33;;;;;;;158.27;96.28;;;4.80;99.90;;;;;;5096651;28;20394;-74
2023/01/07 01:32:59;;;;;;;135.32;82.18;;;4.80;99.90;;;;;;5077529;28;20024;-74
2023/01/07 01:35:26;;;;;;;141.05;91.10;;;4.80;99.90;;;;;;5065877;28;20129;-71
2023/01/07 01:37:52;;;;;;;92.18;55.08;;;4.80;99.90;;;;;;5078354;28;20035;-74
2023/01/07 01:40:18;;;;;;;93.22;53.95;;;4.80;99.90;;;;;;5077995;28;20024;-74
2023/01/07 01:42:44;;;;;;;129.15;84.45;;;4.80;99.90;;;;;;5064354;28;20048;-74
2023/01/07 01:45:14;;;;;;;113.55;70.68;;;4.80;99.90;;;;;;5078315;28;20728;-74
2023/01/07 01:48:04;;;;;;;97.38;59.75;;;4.80;99.90;;;;;;5077463;28;20028;-74
2023/01/07 01:50:41;;;;;;;106.78;67.60;;;4.80;99.90;;;;;;5096080;28;20031;-71
2023/01/07 01:53:13;;;;;;;67.45;41.22;;;4.70;99.90;;;;;;5096035;28;20081;-73
2023/01/07 01:55:50;;;;;;;57.08;39.08;;;4.70;99.90;;;;;;5077809;28;20028;-74
2023/01/07 01:58:23;;;;;;;64.65;41.92;;;4.60;99.90;;;;;;5078012;28;20097;-74
2023/01/07 02:00:50;;;;;;;65.32;40.97;;;4.60;99.90;;;;;;5068133;28;20077;-74
2023/01/07 02:03:19;;;;;;;63.97;40.17;;;4.60;99.90;;;;;;5095793;28;20461;-74
2023/01/07 02:05:47;;;;;;;48.03;33.00;;;4.40;99.90;;;;;;5077666;28;20498;-74
2023/01/07 02:08:20;;;;;;;48.75;31.17;;;4.30;99.90;;;;;;5077958;28;20081;-74
2023/01/07 02:10:47;;;;;;;;;;;4.30;99.90;;;;;;5075138;28;20127;-74
2023/01/07 02:13:57;;;;;;;48.40;31.10;;;4.30;99.90;;;;;;5086070;28;20359;-72
2023/01/07 02:17:02;;;;;;;43.88;28.90;;;4.30;99.90;;;;;;4979292;28;20081;-73
2023/01/07 02:19:58;;;;;;;50.50;31.20;;;4.30;99.90;;;;;;4974408;28;20425;-72
2023/01/07 02:22:26;;;;;;;46.28;29.90;;;4.30;99.90;;;;;;4974389;28;20442;-73
2023/01/07 02:25:21;;;;;;;52.30;34.40;;;4.30;99.90;;;;;;4974318;28;20026;-73
2023/01/07 02:28:00;;;;;;;49.83;35.42;;;4.30;99.90;;;;;;4972912;28;20122;-74
2023/01/07 02:30:54;;;;;;;52.03;34.17;;;4.30;99.90;;;;;;4954974;28;20109;-74
2023/01/07 02:33:26;;;;;;;53.45;34.15;;;4.30;99.90;;;;;;4973537;28;20078;-74
2023/01/07 02:35:54;;;;;;;47.40;32.00;;;4.30;99.90;;;;;;4974045;28;20540;-74
2023/01/07 02:38:50;;;;;;;46.10;32.58;;;4.30;99.90;;;;;;4973672;28;20055;-74
2023/01/07 02:41:40;;;;;;;51.95;33.55;;;4.30;99.90;;;;;;4973636;28;20462;-73
2023/01/07 02:44:37;;;;;;;46.97;31.08;;;4.20;99.90;;;;;;4974293;28;20053;-74
2023/01/07 02:47:15;;;;;;;50.05;35.33;;;4.20;99.90;;;;;;4974183;28;20035;-74
2023/01/07 02:49:41;;;;;;;51.22;33.85;;;4.20;99.90;;;;;;4990451;28;20120;-73
2023/01/07 02:52:34;;;;;;;53.58;34.38;;;4.10;99.90;;;;;;5016223;28;20112;-73
2023/01/07 02:55:05;;;;;;;54.40;36.72;;;4.00;99.90;;;;;;5031330;28;20068;-73
2023/01/07 02:57:49;;;;;;;51.95;30.77;;;4.00;99.90;;;;;;5076410;28;20063;-73
2023/01/07 03:00:25;;;;;;;54.85;33.67;;;4.00;99.90;;;;;;5068478;28;20035;-74
2023/01/07 03:03:11;;;;;;;71.05;46.13;;;3.90;99.90;;;;;;5094086;28;20036;-74
2023/01/07 03:06:14;;;;;;;62.33;42.58;;;3.90;99.90;;;;;;5094699;28;20089;-73
2023/01/07 03:09:02;;;;;;;126.07;81.05;;;3.80;99.90;;;;;;5094786;28;20024;-73
2023/01/07 03:11:36;;;;;;;112.88;71.28;;;3.90;99.90;;;;;;5065627;28;20135;-73
2023/01/07 03:14:25;;;;;;;80.55;54.78;;;3.80;99.90;;;;;;5074670;28;20106;-73
2023/01/07 03:17:04;;;;;;;78.72;51.22;;;3.80;99.90;;;;;;5094613;28;20028;-73
2023/01/07 03:19:34;;;;;;;77.75;51.92;;;3.80;99.90;;;;;;5094440;28;20024;-74
2023/01/07 03:22:04;;;;;;;95.65;62.55;;;3.70;99.90;;;;;;5075191;28;20124;-74
2023/01/07 03:24:31;;;;;;;90.82;60.00;;;3.60;99.90;;;;;;5065314;28;20036;-73
2023/01/07 03:26:59;;;;;;;70.72;48.35;;;3.60;99.90;;;;;;5080866;28;20033;-73
2023/01/07 03:29:25;;;;;;;59.15;39.17;;;3.60;99.90;;;;;;5065973;28;20559;-73
2023/01/07 03:32:16;;;;;;;55.20;35.72;;;3.60;99.90;;;;;;5075408;28;20025;-74
2023/01/07 03:34:43;;;;;;;43.10;30.88;;;3.70;99.90;;;;;;5053459;28;20051;-74
2023/01/07 03:37:12;;;;;;;51.78;32.85;;;3.70;99.90;;;;;;5071033;28;20029;-73
2023/01/07 03:39:41;;;;;;;49.88;33.33;;;3.80;99.90;;;;;;5070510;28;20086;-73
2023/01/07 03:44:55;;;;;;;65.30;42.78;;;3.80;99.90;;;;;;5093905;28;20122;-73
2023/01/07 03:47:25;;;;;;;78.82;49.78;;;3.70;99.90;;;;;;5070808;28;20109;-73
2023/01/07 03:49:51;;;;;;;63.25;40.83;;;3.30;99.90;;;;;;5086230;28;20103;-73
2023/01/07 03:52:16;;;;;;;52.33;35.17;;;3.40;99.90;;;;;;5061314;28;20115;-73
2023/01/07 03:54:42;;;;;;;54.13;36.72;;;3.20;99.90;;;;;;5081038;28;20497;-73
2023/01/07 03:57:08;;;;;;;53.67;38.45;;;3.20;99.90;;;;;;5062757;28;20514;-73
2023/01/07 03:59:34;;;;;;;58.30;35.97;;;3.20;99.90;;;;;;5093780;28;20024;-73
2023/01/07 04:02:00;;;;;;;65.05;43.47;;;3.20;99.90;;;;;;5090460;28;20399;-73
2023/01/07 04:04:26;;;;;;;58.28;39.58;;;3.20;99.90;;;;;;5075584;28;20028;-73
2023/01/07 04:06:52;;;;;;;75.88;49.78;;;3.20;99.90;;;;;;5089027;28;20178;-73
2023/01/07 04:09:20;;;;;;;123.85;79.97;;;3.30;99.90;;;;;;5074591;28;20051;-73
2023/01/07 04:11:47;;;;;;;130.85;87.32;;;3.30;99.90;;;;;;5074875;28;20036;-74
2023/01/07 04:14:14;;;;;;;86.13;56.60;;;3.30;99.90;;;;;;5075267;28;20480;-73
2023/01/07 04:16:39;;;;;;;67.68;47.00;;;3.40;99.90;;;;;;5084521;28;20184;-73
2023/01/07 04:19:06;;;;;;;57.17;40.53;;;3.30;99.90;;;;;;5080637;28;20042;-73
2023/01/07 04:21:32;;;;;;;48.33;35.78;;;3.20;99.90;;;;;;5070801;28;20064;-73
2023/01/07 04:23:58;;;;;;;44.85;33.38;;;3.10;99.90;;;;;;5074949;28;20446;-72
2023/01/07 04:26:25;;;;;;;54.17;36.63;;;3.00;99.90;;;;;;5075403;28;20383;-73
2023/01/07 04:28:51;;;;;;;52.78;38.42;;;2.90;99.90;;;;;;5069361;28;20029;-73
2023/01/07 04:31:17;;;;;;;46.85;35.03;;;2.90;99.90;;;;;;5070942;28;20483;-73
2023/01/07 04:33:43;;;;;;;44.58;31.77;;;3.00;99.90;;;;;;5074714;28;20110;-73
2023/01/07 04:36:12;;;;;;;44.63;30.95;;;3.00;99.90;;;;;;5068077;28;20033;-74
2023/01/07 04:38:38;;;;;;;48.15;33.28;;;2.90;99.90;;;;;;5070889;28;20028;-73
2023/01/07 04:41:04;;;;;;;44.92;31.35;;;2.90;99.90;;;;;;5070976;28;20049;-74
2023/01/07 04:43:31;;;;;;;47.45;32.45;;;3.00;99.90;;;;;;5054900;28;20056;-74
2023/01/07 04:45:57;;;;;;;45.42;30.90;;;3.00;99.90;;;;;;5061669;28;20029;-74
2023/01/07 04:48:23;;;;;;;42.53;31.60;;;2.90;99.90;;;;;;5059253;28;20036;-73
2023/01/07 04:50:52;;;;;;;52.50;33.70;;;2.90;99.90;;;;;;5054896;28;20558;-74
2023/01/07 04:53:18;;;;;;;40.15;28.80;;;2.90;99.90;;;;;;5066315;28;20407;-74
2023/01/07 04:55:45;;;;;;;44.97;32.20;;;2.90;99.90;;;;;;5075231;28;20097;-74
2023/01/07 04:58:11;;;;;;;44.33;30.40;;;2.90;99.90;;;;;;5079587;28;20020;-74
2023/01/07 05:00:38;;;;;;;46.38;31.77;;;2.90;99.90;;;;;;5066112;28;20078;-74
2023/01/07 05:03:04;;;;;;;44.50;30.60;;;2.90;99.90;;;;;;5079158;28;20422;-74
2023/01/07 05:05:31;;;;;;;41.20;29.23;;;2.90;99.90;;;;;;5067329;28;20387;-72
2023/01/07 05:07:58;;;;;;;48.83;33.55;;;2.90;99.90;;;;;;5053274;28;20088;-73
2023/01/07 05:10:27;;;;;;;60.35;42.42;;;2.80;99.90;;;;;;5082445;28;20036;-73
2023/01/07 05:12:53;;;;;;;63.00;39.72;;;2.80;99.90;;;;;;5071829;28;20037;-72
2023/01/07 05:15:19;;;;;;;77.57;52.85;;;2.70;99.90;;;;;;5072431;28;20092;-73
2023/01/07 05:17:45;;;;;;;88.07;61.42;;;2.50;99.90;;;;;;5054216;28;20032;-73
2023/01/07 05:20:12;;;;;;;95.68;61.95;;;2.40;99.90;;;;;;5054235;28;20172;-72
2023/01/07 05:22:38;;;;;;;89.75;59.63;;;2.30;99.90;;;;;;5054143;28;20123;-71
2023/01/07 05:25:05;;;;;;;101.57;67.57;;;2.30;99.90;;;;;;5072204;28;20162;-71
2023/01/07 05:27:31;;;;;;;95.63;65.25;;;2.40;99.90;;;;;;5072420;28;20039;-72
2023/01/07 05:29:58;;;;;;;85.97;57.78;;;2.40;99.90;;;;;;5054089;28;20082;-72
2023/01/07 05:32:24;;;;;;;93.07;66.15;;;2.50;99.90;;;;;;5072165;28;20028;-72
2023/01/07 05:34:50;;;;;;;94.47;64.70;;;2.50;99.90;;;;;;5053929;28;20019;-73
2023/01/07 05:37:16;;;;;;;116.10;79.10;;;2.50;99.90;;;;;;5062632;28;20402;-73
2023/01/07 05:39:44;;;;;;;133.15;91.05;;;2.40;99.90;;;;;;5061061;28;20384;-73
2023/01/07 05:42:14;;;;;;;113.38;80.13;;;2.40;99.90;;;;;;5056149;28;20045;-73
2023/01/07 05:44:41;;;;;;;118.88;78.38;;;2.40;99.90;;;;;;5051928;28;20407;-73
2023/01/07 05:47:07;;;;;;;114.65;77.35;;;2.40;99.90;;;;;;5056093;28;20464;-73
2023/01/07 05:49:33;;;;;;;110.60;74.50;;;2.40;99.90;;;;;;5055660;28;20028;-73
2023/01/07 05:51:58;;;;;;;116.95;72.32;;;2.40;99.90;;;;;;5055899;28;20472;-74
2023/01/07 05:54:24;;;;;;;109.60;72.00;;;2.30;99.90;;;;;;5053554;28;20033;-74
2023/01/07 05:56:50;;;;;;;103.60;67.03;;;2.30;99.90;;;;;;5035635;28;20017;-73
2023/01/07 05:59:16;;;;;;;92.00;63.22;;;2.30;99.90;;;;;;5048978;28;20025;-74
2023/01/07 06:01:42;;;;;;;89.43;60.08;;;2.30;99.90;;;;;;5044028;28;20045;-73
2023/01/07 06:04:08;;;;;;;99.63;64.13;;;2.30;99.90;;;;;;5051791;28;20028;-74
2023/01/07 06:06:34;;;;;;;95.22;61.85;;;2.30;99.90;;;;;;5044297;28;20369;-73
2023/01/07 06:08:59;;;;;;;98.13;63.65;;;2.30;99.90;;;;;;5055469;28;20083;-74
2023/01/07 06:11:25;;;;;;;93.05;65.00;;;2.20;99.90;;;;;;5055633;28;20017;-73
2023/01/07 06:13:51;;;;;;;103.10;71.72;;;2.30;99.90;;;;;;5055863;28;20024;-73
2023/01/07 06:16:17;;;;;;;117.65;76.47;;;2.30;99.90;;;;;;5049355;28;20044;-73
2023/01/07 06:18:43;;;;;;;108.30;74.55;;;2.30;99.90;;;;;;5054555;28;20024;-74
2023/01/07 06:21:09;;;;;;;123.50;78.22;;;2.40;99.90;;;;;;5055284;28;20025;-73
2023/01/07 06:23:35;;;;;;;133.40;94.05;;;2.30;99.90;;;;;;5048626;28;20029;-74
2023/01/07 06:26:02;;;;;;;120.18;88.80;;;2.30;99.90;;;;;;5045262;28;20032;-74
2023/01/07 06:28:28;;;;;;;140.75;97.03;;;2.30;99.90;;;;;;5048993;28;20025;-73
2023/01/07 06:30:53;;;;;;;143.38;95.88;;;2.30;99.90;;;;;;5055083;28;20378;-73
2023/01/07 06:33:19;;;;;;;131.23;90.63;;;2.30;99.90;;;;;;5041566;28;20440;-74
2023/01/07 06:35:45;;;;;;;140.23;95.85;;;2.30;99.90;;;;;;5034159;28;20029;-73
2023/01/07 06:38:12;;;;;;;147.75;95.60;;;2.40;99.90;;;;;;5034500;28;20116;-73
2023/01/07 06:40:37;;;;;;;138.18;95.35;;;2.50;99.90;;;;;;5041436;28;20503;-73
2023/01/07 06:43:03;;;;;;;154.43;97.38;;;2.50;99.90;;;;;;5087047;28;20033;-73
2023/01/07 06:45:29;;;;;;;125.68;86.82;;;2.50;99.90;;;;;;5073989;28;20132;-73
2023/01/07 06:47:57;;;;;;;120.78;86.05;;;2.50;99.90;;;;;;5074342;28;20020;-74
2023/01/07 06:50:23;;;;;;;115.38;78.50;;;2.60;99.90;;;;;;5073637;28;20044;-73
2023/01/07 06:52:49;;;;;;;103.28;70.50;;;2.60;99.90;;;;;;5074398;28;20028;-73
2023/01/07 06:55:15;;;;;;;104.38;71.43;;;2.70;99.90;;;;;;5079432;28;20029;-73
2023/01/07 06:57:41;;;;;;;116.07;77.25;;;2.90;99.90;;;;;;5089116;28;20067;-72
2023/01/07 07:00:07;;;;;;;117.05;83.60;;;2.90;99.90;;;;;;5074340;28;20436;-73
2023/01/07 07:02:33;;;;;;;123.40;88.15;;;2.90;99.90;;;;;;5073856;28;20032;-73
2023/01/07 07:04:59;;;;;;;139.38;96.53;;;2.90;99.90;;;;;;5074157;28;20012;-73
2023/01/07 07:07:25;;;;;;;135.57;89.00;;;3.10;99.90;;;;;;5074124;28;20032;-74
2023/01/07 07:09:50;;;;;;;123.72;86.07;;;3.10;99.90;;;;;;5074233;28;20028;-72
2023/01/07 07:12:18;;;;;;;134.68;95.10;;;3.20;99.90;;;;;;5074037;28;20495;-73
2023/01/07 07:14:44;;;;;;;123.03;89.10;;;3.30;99.90;;;;;;5074128;28;20020;-73
2023/01/07 07:17:10;;;;;;;150.52;102.40;;;3.40;99.90;;;;;;5073350;28;20103;-72
2023/01/07 07:19:36;;;;;;;150.20;107.50;;;3.30;99.90;;;;;;5073847;28;20521;-73
2023/01/07 07:22:03;;;;;;;171.40;110.85;;;3.40;99.90;;;;;;5073347;28;20033;-73
2023/01/07 07:24:29;;;;;;;181.75;122.35;;;3.60;99.90;;;;;;5073899;28;20460;-73
2023/01/07 07:26:55;;;;;;;195.75;131.45;;;3.70;99.90;;;;;;5073570;28;20027;-73
2023/01/07 07:29:21;;;;;;;196.90;143.25;;;3.70;99.90;;;;;;5073458;28;20023;-73
2023/01/07 07:31:46;;;;;;;202.68;149.77;;;3.80;99.90;;;;;;5073420;28;20020;-73
2023/01/07 07:34:12;;;;;;;196.55;139.10;;;3.90;99.90;;;;;;5073546;28;20464;-73
2023/01/07 07:36:38;;;;;;;197.18;140.20;;;3.90;99.90;;;;;;5070659;28;20024;-73
2023/01/07 07:39:04;;;;;;;191.70;134.48;;;3.90;99.90;;;;;;5055012;28;20441;-74
2023/01/07 07:41:30;;;;;;;182.98;130.35;;;3.90;99.90;;;;;;5073271;28;20059;-72
2023/01/07 07:43:59;;;;;;;181.00;127.63;;;4.00;99.90;;;;;;5073470;28;20390;-73
2023/01/07 07:46:24;;;;;;;201.35;137.48;;;4.20;99.90;;;;;;5073477;28;20028;-73
2023/01/07 07:48:50;;;;;;;200.07;139.20;;;4.30;99.90;;;;;;5072833;28;20028;-73
2023/01/07 07:51:16;;;;;;;177.50;119.80;;;4.30;99.90;;;;;;5073266;28;20104;-73
2023/01/07 07:53:42;;;;;;;257.50;179.93;;;4.40;99.90;;;;;;5073325;28;20081;-73
2023/01/07 07:56:09;;;;;;;251.63;174.70;;;4.60;99.90;;;;;;5073253;28;20028;-74
2023/01/07 07:58:35;;;;;;;217.88;154.23;;;4.70;99.90;;;;;;5073278;28;20065;-74
2023/01/07 08:01:01;;;;;;;170.95;125.53;;;4.80;99.90;;;;;;5073177;28;20021;-74
2023/01/07 08:03:26;;;;;;;161.35;112.82;;;4.90;99.90;;;;;;5073046;28;20495;-73
2023/01/07 08:05:52;;;;;;;161.75;118.65;;;5.00;99.90;;;;;;5073157;28;20059;-74
2023/01/07 08:08:18;;;;;;;168.27;111.70;;;5.20;99.90;;;;;;5072376;28;20024;-74
2023/01/07 08:10:44;;;;;;;144.93;101.45;;;5.30;99.90;;;;;;5070122;28;20024;-73
2023/01/07 08:13:10;;;;;;;144.00;98.82;;;5.50;99.90;;;;;;5072926;28;20029;-74
2023/01/07 08:15:36;;;;;;;123.57;85.05;;;5.60;99.90;;;;;;5055182;28;20039;-74
2023/01/07 08:18:05;;;;;;;119.30;83.78;;;5.70;99.90;;;;;;5072624;28;20063;-74
2023/01/07 08:20:33;;;;;;;135.88;92.60;;;5.90;99.90;;;;;;5072948;28;20017;-74
2023/01/07 08:23:03;;;;;;;124.20;90.07;;;6.10;99.90;;;;;;5072718;28;20032;-74
2023/01/07 08:25:30;;;;;;;122.10;86.45;;;6.20;99.90;;;;;;5070944;28;20052;-74
2023/01/07 08:27:57;;;;;;;126.43;85.85;;;6.20;99.90;;;;;;5072549;28;20021;-74
2023/01/07 08:30:23;;;;;;;114.97;86.50;;;6.30;99.90;;;;;;5072386;28;20027;-74
2023/01/07 08:32:49;;;;;;;67.45;46.78;;;6.50;99.90;;;;;;5072457;28;20036;-74
2023/01/07 08:35:15;;;;;;;58.55;39.50;;;6.50;99.90;;;;;;5072602;28;20036;-73
2023/01/07 08:37:41;;;;;;;56.95;40.42;;;6.40;99.90;;;;;;5072611;28;20025;-73
2023/01/07 08:40:09;;;;;;;67.28;44.35;;;6.40;99.90;;;;;;5072351;28;20012;-73
2023/01/07 08:42:38;;;;;;;70.32;45.40;;;6.40;99.90;;;;;;5072486;28;20079;-74
2023/01/07 08:45:08;;;;;;;80.10;50.55;;;6.30;99.90;;;;;;5072686;28;20024;-73
2023/01/07 08:47:34;;;;;;;88.18;59.70;;;6.50;99.90;;;;;;5070463;28;20101;-74
2023/01/07 08:50:00;;;;;;;91.05;62.15;;;6.60;99.90;;;;;;5072350;28;20440;-74
2023/01/07 08:52:27;;;;;;;90.55;61.53;;;6.80;99.90;;;;;;5072368;28;20057;-74
2023/01/07 08:54:52;;;;;;;79.45;57.88;;;6.90;99.90;;;;;;5067460;28;20024;-74
2023/01/07 08:57:18;;;;;;;94.57;59.30;;;7.10;99.90;;;;;;5051998;28;20044;-74
2023/01/07 08:59:44;;;;;;;87.18;60.47;;;7.20;99.90;;;;;;5057377;28;20025;-74
2023/01/07 09:02:18;;;;;;;71.97;51.22;;;7.30;99.90;;;;;;5051839;28;20106;-74
2023/01/07 09:04:44;;;;;;;77.32;53.40;;;7.40;99.90;;;;;;5051226;28;20028;-74
2023/01/07 09:07:11;;;;;;;62.58;45.97;;;7.50;99.90;;;;;;5061837;28;20103;-74
2023/01/07 09:09:37;;;;;;;62.85;45.45;;;7.60;99.90;;;;;;5058387;28;20104;-74
2023/01/07 09:12:05;;;;;;;55.72;38.45;;;7.80;99.90;;;;;;5071958;28;20020;-74
2023/01/07 09:14:31;;;;;;;50.95;35.40;;;7.90;99.90;;;;;;5065903;28;20073;-73
2023/01/07 09:16:57;;;;;;;55.08;35.88;;;8.00;99.90;;;;;;5052386;28;20110;-74
2023/01/07 09:19:23;;;;;;;54.08;38.30;;;8.10;99.90;;;;;;5059219;28;20042;-73
2023/01/07 09:21:50;;;;;;;56.90;38.22;;;8.30;99.90;;;;;;5060855;28;20495;-73
2023/01/07 09:24:16;;;;;;;57.17;38.67;;;8.30;99.90;;;;;;5058043;28;20021;-73
2023/01/07 09:26:42;;;;;;;56.20;39.55;;;8.30;99.90;;;;;;5059906;28;20021;-74
2023/01/07 09:29:09;;;;;;;57.22;40.53;;;8.40;99.90;;;;;;5058254;28;20039;-74
2023/01/07 09:31:35;;;;;;;58.63;40.22;;;8.40;99.90;;;;;;5059867;28;20033;-73
2023/01/07 09:34:03;;;;;;;62.20;41.15;;;8.50;99.90;;;;;;5057253;28;20032;-74
2023/01/07 09:36:29;;;;;;;57.28;41.53;;;8.60;99.90;;;;;;5059885;28;20032;-74
2023/01/07 09:38:55;;;;;;;62.90;43.08;;;8.70;99.90;;;;;;5058675;28;20032;-74
2023/01/07 09:41:42;;;;;;;65.20;40.15;;;8.80;99.90;;;;;;5068564;28;20777;-74
2023/01/07 09:44:32;;;;;;;53.00;37.42;;;8.90;99.90;;;;;;5065238;28;20055;-74
2023/01/07 09:47:00;;;;;;;44.30;30.08;;;9.00;99.90;;;;;;5074518;28;20028;-74
2023/01/07 09:49:31;;;;;;;45.80;29.55;;;9.10;99.90;;;;;;5072777;28;20361;-74
2023/01/07 09:52:16;;;;;;;41.70;26.40;;;9.10;99.90;;;;;;5075188;28;20104;-73
2023/01/07 09:54:47;;;;;;;39.33;24.05;;;9.20;99.90;;;;;;5074555;28;20464;-73
2023/01/07 09:57:16;;;;;;;39.67;26.42;;;9.20;99.90;;;;;;5074685;28;20025;-74
2023/01/07 09:59:43;;;;;;;35.38;24.95;;;9.30;99.90;;;;;;5072961;28;20024;-74
2023/01/07 10:02:43;;;;;;;36.65;24.33;;;9.50;99.90;;;;;;5069071;28;20472;-74
2023/01/07 10:05:15;;;;;;;33.38;24.33;;;9.30;99.90;;;;;;5055091;28;20104;-73
2023/01/07 10:07:50;;;;;;;35.10;23.98;;;9.30;99.90;;;;;;5057155;28;20048;-74
2023/01/07 10:10:45;;;;;;;36.83;26.75;;;9.50;99.90;;;;;;5055950;28;20112;-74
2023/01/07 10:13:38;;;;;;;38.22;25.05;;;9.40;99.90;;;;;;5049993;28;20060;-74
2023/01/07 10:16:33;;;;;;;37.08;24.27;;;9.50;99.90;;;;;;5074656;28;20035;-74
2023/01/07 10:19:27;;;;;;;40.60;24.88;;;9.50;99.90;;;;;;5012724;28;20034;-74
2023/01/07 10:22:18;;;;;;;39.33;26.05;;;9.60;99.90;;;;;;5012106;28;20579;-74
2023/01/07 10:24:49;;;;;;;41.92;28.92;;;9.80;99.90;;;;;;5010875;28;20038;-73
2023/01/07 10:27:23;;;;;;;41.53;28.27;;;9.90;99.90;;;;;;5012195;28;20030;-73
2023/01/07 10:29:53;;;;;;;43.53;26.25;;;9.90;99.90;;;;;;5011760;28;20608;-72
2023/01/07 10:32:21;;;;;;;39.53;26.48;;;10.00;99.90;;;;;;5012404;28;20040;-74
2023/01/07 10:34:50;;;;;;;38.25;27.25;;;9.90;99.90;;;;;;5012402;28;20018;-73
2023/01/07 10:37:34;;;;;;;38.13;26.40;;;10.10;99.90;;;;;;5012341;28;20092;-74
2023/01/07 10:40:17;;;;;;;38.25;26.17;;;10.20;99.90;;;;;;5012402;28;20022;-73
2023/01/07 10:43:02;;;;;;;37.35;27.58;;;10.30;99.90;;;;;;5012170;28;20069;-73
2023/01/07 10:45:28;;;;;;;42.38;28.58;;;10.40;99.90;;;;;;5012484;28;20034;-73
2023/01/07 10:48:20;;;;;;;38.72;28.15;;;10.40;99.90;;;;;;5012210;28;20048;-73
2023/01/07 10:51:13;;;;;;;43.73;29.57;;;10.40;99.90;;;;;;5009934;28;20069;-74
2023/01/07 10:54:14;;;;;;;42.95;30.35;;;10.50;99.90;;;;;;5011030;28;20064;-74
2023/01/07 10:56:51;;;;;;;44.92;30.17;;;10.70;99.90;;;;;;5019017;28;20117;-74
2023/01/07 10:59:19;;;;;;;45.63;30.33;;;10.50;99.90;;;;;;5013440;28;20029;-74
2023/01/07 11:01:53;;;;;;;44.45;31.42;;;10.60;99.90;;;;;;5016160;28;20041;-74
2023/01/07 11:04:19;;;;;;;45.90;31.80;;;10.50;99.90;;;;;;5013355;28;20040;-74
2023/01/07 11:07:05;;;;;;;42.75;31.48;;;10.50;99.90;;;;;;5016045;28;20030;-74
2023/01/07 11:09:40;;;;;;;43.30;30.15;;;10.60;99.90;;;;;;5013315;28;20152;-73
2023/01/07 11:12:38;;;;;;;40.13;28.98;;;10.60;99.90;;;;;;5018648;28;20029;-74
2023/01/07 11:15:19;;;;;;;45.28;30.70;;;10.70;99.90;;;;;;5030888;28;20480;-74
2023/01/07 11:17:51;;;;;;;39.28;28.55;;;10.70;99.90;;;;;;5033283;28;20481;-74
2023/01/07 11:20:46;;;;;;;35.75;27.60;;;10.60;99.90;;;;;;5026442;28;20036;-73
2023/01/07 11:23:31;;;;;;;40.28;29.77;;;10.70;99.90;;;;;;5016412;28;20080;-74
2023/01/07 11:26:17;;;;;;;44.95;32.55;;;10.80;99.90;;;;;;5015149;28;20029;-74
2023/01/07 11:28:51;;;;;;;47.85;32.60;;;10.80;99.90;;;;;;5017046;28;20163;-73
2023/01/07 11:31:18;;;;;;;46.80;34.55;;;10.80;99.90;;;;;;5033217;28;20029;-74
2023/01/07 11:33:52;;;;;;;46.13;32.88;;;10.80;99.90;;;;;;5029473;28;20031;-73
2023/01/07 11:36:18;;;;;;;45.75;32.67;;;10.90;99.90;;;;;;5032955;28;20056;-73
2023/01/07 11:38:46;;;;;;;50.08;35.08;;;10.90;99.90;;;;;;5034070;28;20025;-73
2023/01/07 11:41:22;;;;;;;48.60;35.72;;;10.90;99.90;;;;;;5038192;28;20114;-73
2023/01/07 11:43:50;;;;;;;47.22;32.20;;;11.00;99.90;;;;;;5050314;28;20171;-74
2023/01/07 11:46:17;;;;;;;45.38;31.98;;;11.00;99.90;;;;;;5040363;28;20021;-74
2023/01/07 11:48:53;;;;;;;50.17;34.88;;;11.00;99.90;;;;;;5044512;28;20060;-73
2023/01/07 11:51:21;;;;;;;46.30;32.92;;;11.00;99.90;;;;;;5041830;28;20365;-73
2023/01/07 11:53:55;;;;;;;41.92;30.70;;;11.00;99.90;;;;;;5041198;28;20159;-73
2023/01/07 11:56:22;;;;;;;43.10;31.20;;;11.00;99.90;;;;;;5053329;28;20028;-73
2023/01/07 11:58:50;;;;;;;42.97;31.20;;;11.10;99.90;;;;;;5053127;28;20032;-74
2023/01/07 12:01:21;;;;;;;46.42;31.33;;;11.00;99.90;;;;;;5053070;28;20024;-73
2023/01/07 12:03:50;;;;;;;43.95;31.42;;;11.10;99.90;;;;;;5053044;28;20029;-73
2023/01/07 12:06:45;;;;;;;48.00;30.75;;;11.10;99.90;;;;;;5052910;28;20356;-73
2023/01/07 12:09:35;;;;;;;41.70;28.85;;;11.10;99.90;;;;;;4986435;28;20393;-73
2023/01/07 12:12:35;;;;;;;38.42;27.65;;;11.10;99.90;;;;;;4991051;28;20029;-73
2023/01/07 12:15:22;;;;;;;36.10;28.25;;;11.10;99.90;;;;;;4992130;28;20503;-73
2023/01/07 12:17:58;;;;;;;42.65;27.00;;;11.10;99.90;;;;;;4990811;28;20229;-73
2023/01/07 12:20:54;;;;;;;37.95;27.65;;;11.10;99.90;;;;;;4990253;28;20047;-74
2023/01/07 12:24:02;;;;;;;38.47;28.92;;;11.20;99.90;;;;;;4990293;28;20045;-73
2023/01/07 12:27:01;;;;;;;42.97;28.88;;;11.20;99.90;;;;;;4990182;28;20038;-72
2023/01/07 12:29:56;;;;;;;40.13;29.20;;;11.10;99.90;;;;;;4990616;28;20026;-73
2023/01/07 12:32:39;;;;;;;41.47;28.67;;;11.20;99.90;;;;;;4989232;28;20109;-73
2023/01/07 12:35:17;;;;;;;40.05;28.35;;;11.20;99.90;;;;;;4990565;28;20030;-72
2023/01/07 12:38:19;;;;;;;42.85;28.75;;;11.20;99.90;;;;;;4974725;28;20018;-73
2023/01/07 12:40:59;;;;;;;38.30;28.27;;;11.30;99.90;;;;;;4971191;28;20038;-73
2023/01/07 12:43:33;;;;;;;37.38;25.92;;;11.20;99.90;;;;;;4970105;28;20066;-73
2023/01/07 12:46:02;;;;;;;37.17;26.42;;;11.20;99.90;;;;;;4981361;28;20038;-73
2023/01/07 12:48:54;;;;;;;40.80;26.63;;;11.20;99.90;;;;;;4990954;28;20034;-72
2023/01/07 12:51:26;;;;;;;38.05;26.40;;;11.30;99.90;;;;;;4992837;28;20417;-72
2023/01/07 12:53:59;;;;;;;36.08;25.98;;;11.30;99.90;;;;;;4990586;28;20026;-72
2023/01/07 12:56:31;;;;;;;;;;;11.20;99.90;;;;;;4991460;28;20052;-74
2023/01/07 12:59:02;;;;;;;39.25;28.35;;;11.30;99.90;;;;;;4991216;28;20419;-73